Time;durP1;ratioP1;P1;durP2;ratioP2;P2;SDS_P1;SDS_P2;PMS_P1;PMS_P2;Temp;Humidity;BMP_temperature;BMP_pressure;BME280_temperature;BME280_humidity;BME280_pressure;Samples;Min_cycle;Max_cycle;Signal;HPM_P1;HPM_P2
2022/12/12 00:00:29;;;;;;;6.65;4.03;;;;;;;6.18;77.93;98019.84;4994519;28;20501;-70
2022/12/12 00:02:56;;;;;;;4.35;3.72;;;;;;;6.14;77.98;98032.78;4994519;28;20044;-70
2022/12/12 00:05:21;;;;;;;5.65;3.80;;;;;;;6.06;78.36;98045.59;4994532;28;20025;-70
2022/12/12 00:07:47;;;;;;;8.02;4.30;;;;;;;6.08;78.25;98036.94;4992690;28;20386;-70
2022/12/12 00:10:13;;;;;;;5.75;3.97;;;;;;;6.32;77.71;98045.38;5026049;28;20041;-70
2022/12/12 00:12:38;;;;;;;6.05;4.30;;;;;;;6.30;77.60;98046.84;4993418;28;20033;-70
2022/12/12 00:15:04;;;;;;;4.88;3.95;;;;;;;6.40;77.48;98043.66;4994363;28;20027;-70
2022/12/12 00:17:30;;;;;;;7.13;4.55;;;;;;;6.13;77.40;98040.31;5009987;28;20049;-70
2022/12/12 00:19:55;;;;;;;5.22;4.50;;;;;;;5.66;78.40;98038.50;5013840;28;20409;-71
2022/12/12 00:22:20;;;;;;;5.70;4.30;;;;;;;5.48;79.62;98035.06;4998422;28;20049;-70
2022/12/12 00:24:46;;;;;;;7.18;4.30;;;;;;;5.37;80.52;98033.81;4994100;28;20033;-70
2022/12/12 00:27:11;;;;;;;10.52;4.75;;;;;;;5.25;80.77;98037.31;4994022;28;20031;-70
2022/12/12 00:29:37;;;;;;;5.13;4.28;;;;;;;5.19;80.60;98037.53;4996404;28;20037;-70
2022/12/12 00:32:02;;;;;;;5.38;4.30;;;;;;;5.06;81.38;98035.75;5012295;28;20034;-70
2022/12/12 00:34:28;;;;;;;6.43;4.65;;;;;;;4.97;81.80;98044.13;5012486;28;20029;-70
2022/12/12 00:36:53;;;;;;;7.53;4.80;;;;;;;4.89;82.26;98043.03;5000806;28;20031;-70
2022/12/12 00:39:19;;;;;;;7.93;4.63;;;;;;;4.86;82.32;98035.38;4992326;28;20037;-70
2022/12/12 00:41:45;;;;;;;7.68;5.97;;;;;;;4.84;82.66;98059.00;5012170;28;20052;-70
2022/12/12 00:44:11;;;;;;;5.43;4.13;;;;;;;4.73;83.46;98072.44;5013357;28;20026;-70
2022/12/12 00:46:37;;;;;;;6.72;5.05;;;;;;;4.62;83.24;98078.31;5012363;28;20033;-70
2022/12/12 00:49:02;;;;;;;6.13;4.35;;;;;;;4.50;84.94;98087.28;5012985;28;20046;-70
2022/12/12 00:51:29;;;;;;;10.45;6.20;;;;;;;4.54;85.26;98083.88;5011490;28;20026;-70
2022/12/12 00:53:56;;;;;;;6.97;4.00;;;;;;;4.55;85.03;98086.31;5013304;28;20029;-70
2022/12/12 00:56:24;;;;;;;8.00;5.85;;;;;;;4.58;85.10;98093.94;5012195;28;20022;-70
2022/12/12 00:58:50;;;;;;;7.78;5.38;;;;;;;4.55;84.84;98094.59;5011949;28;20030;-70
2022/12/12 01:01:25;;;;;;;8.05;4.88;;;;;;;4.52;85.06;98103.59;5013087;28;20021;-70
2022/12/12 01:03:52;;;;;;;13.35;7.60;;;;;;;4.46;85.18;98108.47;5006383;28;20404;-71
2022/12/12 01:06:18;;;;;;;12.45;7.03;;;;;;;4.56;84.15;98118.38;5002461;28;20030;-70
2022/12/12 01:08:44;;;;;;;15.57;8.30;;;;;;;4.56;84.12;98123.94;5012829;28;20026;-70
2022/12/12 01:11:10;;;;;;;16.00;8.82;;;;;;;4.53;83.93;98130.13;5011432;28;20381;-70
2022/12/12 01:13:37;;;;;;;17.05;9.32;;;;;;;4.51;84.11;98132.41;5011517;28;20070;-70
2022/12/12 01:16:05;;;;;;;16.45;8.75;;;;;;;4.40;84.37;98136.66;5009034;28;20026;-70
2022/12/12 01:18:30;;;;;;;14.75;7.85;;;;;;;4.41;83.30;98129.97;5011247;28;20080;-70
2022/12/12 01:20:56;;;;;;;15.60;9.02;;;;;;;4.35;83.69;98121.84;5006526;28;20045;-70
2022/12/12 01:23:21;;;;;;;12.95;8.68;;;;;;;4.37;83.35;98129.00;5012519;28;20033;-70
2022/12/12 01:25:47;;;;;;;9.32;6.07;;;;;;;4.40;83.14;98131.13;5012432;28;20459;-70
2022/12/12 01:28:13;;;;;;;8.00;5.60;;;;;;;4.44;83.06;98138.44;5012464;28;20030;-70
2022/12/12 01:30:39;;;;;;;6.90;5.45;;;;;;;4.46;83.17;98135.34;5011051;28;20033;-70
2022/12/12 01:33:04;;;;;;;7.50;5.70;;;;;;;4.42;83.58;98135.19;5012364;28;20049;-70
2022/12/12 01:35:32;;;;;;;9.68;5.65;;;;;;;4.46;82.97;98135.34;5007907;28;20092;-68
2022/12/12 01:37:57;;;;;;;10.18;6.10;;;;;;;4.52;82.48;98135.97;5004291;28;20040;-70
2022/12/12 01:40:26;;;;;;;9.07;6.60;;;;;;;4.56;82.21;98148.84;4992684;28;20018;-70
2022/12/12 01:42:53;;;;;;;7.27;5.80;;;;;;;4.58;82.26;98149.34;5008816;28;20025;-70
2022/12/12 01:45:56;;;;;;;9.75;6.63;;;;;;;4.80;82.82;98149.50;5012182;28;20026;-70
2022/12/12 01:48:24;;;;;;;6.53;5.20;;;;;;;4.93;80.71;98156.78;4992739;28;20038;-70
2022/12/12 01:50:50;;;;;;;4.90;4.38;;;;;;;4.98;80.73;98148.28;5002327;28;20045;-70
2022/12/12 01:53:18;;;;;;;4.43;4.00;;;;;;;4.97;80.82;98149.44;4992987;28;20421;-70
2022/12/12 01:55:45;;;;;;;6.03;4.63;;;;;;;5.00;79.74;98161.81;4992966;28;20010;-70
2022/12/12 01:58:11;;;;;;;7.93;5.50;;;;;;;5.05;78.82;98165.25;5010811;28;20030;-70
2022/12/12 02:00:37;;;;;;;6.10;5.32;;;;;;;5.05;78.98;98161.63;5011907;28;20022;-71
2022/12/12 02:03:02;;;;;;;5.63;4.88;;;;;;;5.03;78.96;98158.38;5010708;28;20025;-71
2022/12/12 02:05:51;;;;;;;5.70;3.92;;;;;;;5.17;78.25;98155.41;5010842;28;20109;-70
2022/12/12 02:08:19;;;;;;;8.77;4.18;;;;;;;5.37;77.96;98151.09;4992561;28;20125;-70
2022/12/12 02:10:45;;;;;;;5.28;4.75;;;;;;;5.18;77.62;98154.28;4991984;28;20094;-70
2022/12/12 02:13:19;;;;;;;5.05;4.47;;;;;;;5.27;78.13;98143.97;5001842;28;20025;-70
2022/12/12 02:15:55;;;;;;;5.10;4.55;;;;;;;5.38;77.29;98141.63;5010349;28;20013;-70
2022/12/12 02:18:45;;;;;;;5.13;4.60;;;;;;;5.58;76.18;98145.63;5011619;28;20084;-70
2022/12/12 02:21:14;;;;;;;5.90;4.80;;;;;;;5.57;75.87;98162.59;4995540;28;20026;-70
2022/12/12 02:23:54;;;;;;;8.52;6.75;;;;;;;5.55;76.28;98176.81;4990587;28;20034;-70
2022/12/12 02:26:44;;;;;;;5.57;4.80;;;;;;;5.39;77.15;98165.44;4990621;28;20041;-70
2022/12/12 02:29:28;;;;;;;6.50;3.85;;;;;;;5.46;76.53;98174.06;4993920;28;20084;-70
2022/12/12 02:31:59;;;;;;;5.85;4.18;;;;;;;5.50;76.49;98170.63;4990615;28;20501;-70
2022/12/12 02:34:47;;;;;;;5.88;4.10;;;;;;;5.54;76.57;98177.94;4995778;28;20025;-70
2022/12/12 02:37:31;;;;;;;9.48;5.10;;;;;;;5.58;76.42;98175.34;5010162;28;20116;-70
2022/12/12 02:40:23;;;;;;;5.95;3.97;;;;;;;5.51;76.42;98177.78;5010163;28;20034;-70
2022/12/12 02:42:54;;;;;;;5.95;4.32;;;;;;;5.55;76.23;98167.66;5006394;28;20033;-70
2022/12/12 02:45:39;;;;;;;4.90;4.10;;;;;;;5.43;76.35;98160.88;5000542;28;20053;-70
2022/12/12 02:48:19;;;;;;;6.00;4.85;;;;;;;5.53;76.33;98176.31;4990403;28;20031;-70
2022/12/12 02:50:48;;;;;;;6.32;4.93;;;;;;;5.40;76.53;98178.16;4991448;28;20058;-71
2022/12/12 02:53:18;;;;;;;5.40;4.30;;;;;;;5.30;77.22;98189.63;4991720;28;20061;-70
2022/12/12 02:55:43;;;;;;;7.33;4.83;;;;;;;5.28;78.26;98173.31;4991534;28;20425;-70
2022/12/12 02:58:09;;;;;;;7.72;5.18;;;;;;;5.03;79.24;98175.03;5007036;28;20429;-70
2022/12/12 03:00:47;;;;;;;5.32;4.53;;;;;;;4.90;79.58;98177.66;4995685;28;20089;-70
2022/12/12 03:09:24;;;;;;;6.63;5.32;;;;;;;4.66;82.42;98180.13;5011294;28;20060;-70
2022/12/12 03:12:12;;;;;;;7.20;5.68;;;;;;;4.91;81.76;98189.56;5010294;28;20408;-70
2022/12/12 03:15:13;;;;;;;7.35;5.38;;;;;;;5.12;80.43;98191.63;4989961;28;20048;-70
2022/12/12 03:17:44;;;;;;;7.85;4.97;;;;;;;5.06;80.60;98185.44;5001439;28;20049;-70
2022/12/12 03:20:20;;;;;;;6.03;4.80;;;;;;;5.13;79.95;98191.31;5001573;28;20560;-70
2022/12/12 03:22:53;;;;;;;9.05;5.97;;;;;;;4.80;81.12;98189.06;4993860;28;20517;-70
2022/12/12 03:25:33;;;;;;;8.63;5.43;;;;;;;4.75;81.61;98195.59;5011077;28;20499;-70
2022/12/12 03:28:11;;;;;;;7.20;5.55;;;;;;;4.86;82.02;98187.78;5012461;28;20121;-70
2022/12/12 03:30:42;;;;;;;6.45;4.53;;;;;;;4.94;81.92;98197.22;5014652;28;20566;-70
2022/12/12 03:33:15;;;;;;;;;;;;;;;5.02;81.05;98196.38;5014000;28;20030;-71
2022/12/12 03:35:45;;;;;;;6.18;4.38;;;;;;;5.14;80.38;98189.34;5014674;28;19945;-70
2022/12/12 03:38:21;;;;;;;5.53;3.75;;;;;;;5.19;80.55;98201.09;5003948;28;20029;-70
2022/12/12 03:40:52;;;;;;;4.70;4.00;;;;;;;5.12;81.50;98209.06;5011853;28;20068;-70
2022/12/12 03:43:29;;;;;;;9.70;4.47;;;;;;;5.25;80.96;98210.03;5001522;28;20040;-70
2022/12/12 03:46:18;;;;;;;6.85;4.65;;;;;;;5.39;79.89;98215.34;5001482;28;20031;-70
2022/12/12 03:48:54;;;;;;;5.22;4.13;;;;;;;5.17;81.13;98208.09;4994548;28;20048;-70
2022/12/12 03:51:28;;;;;;;7.40;4.68;;;;;;;5.27;80.98;98227.16;4994555;28;20045;-70
2022/12/12 03:54:02;;;;;;;5.72;4.47;;;;;;;5.37;80.40;98234.28;4999887;28;20026;-70
2022/12/12 03:56:43;;;;;;;6.25;4.25;;;;;;;5.43;80.05;98221.91;5003834;28;20029;-71
2022/12/12 03:59:34;;;;;;;6.00;4.20;;;;;;;5.26;81.54;98221.94;5014362;28;20053;-70
2022/12/12 04:02:40;;;;;;;6.30;4.80;;;;;;;5.23;82.29;98240.03;5014161;28;20109;-70
2022/12/12 04:05:27;;;;;;;6.22;4.82;;;;;;;4.98;83.89;98228.66;4999413;28;20083;-70
2022/12/12 04:08:06;;;;;;;6.78;5.50;;;;;;;5.16;83.81;98223.91;5003791;28;20408;-70
2022/12/12 04:14:10;;;;;;;5.68;4.97;;;;;;;5.33;82.35;98217.50;4994680;28;20073;-70
2022/12/12 04:16:41;;;;;;;5.60;4.65;;;;;;;5.33;82.17;98217.50;4997321;28;20030;-70
2022/12/12 04:23:14;;;;;;;9.00;5.13;;;;;;;5.48;82.44;98223.66;5013914;28;20510;-70
2022/12/12 04:25:06;;;;;;;8.10;5.78;;;;;;;5.38;81.61;98233.16;5013623;28;20191;-72
2022/12/12 04:27:43;;;;;;;6.20;5.00;;;;;;;5.38;81.30;98218.47;4998391;28;20591;-70
2022/12/12 04:30:13;;;;;;;8.43;5.50;;;;;;;5.38;81.73;98219.28;4994005;28;20030;-71
2022/12/12 04:32:41;;;;;;;7.68;5.60;;;;;;;5.53;80.92;98219.88;4993287;28;20088;-70
2022/12/12 04:35:13;;;;;;;9.52;5.82;;;;;;;5.56;80.60;98225.59;4993847;28;20030;-70
2022/12/12 04:37:45;;;;;;;9.02;5.78;;;;;;;5.68;79.82;98222.13;4993991;28;20086;-70
2022/12/12 04:40:16;;;;;;;10.35;6.55;;;;;;;5.69;80.07;98234.84;5025213;28;20049;-70
2022/12/12 04:42:51;;;;;;;10.18;7.50;;;;;;;5.31;81.22;98232.84;4999221;28;20561;-70
2022/12/12 04:45:26;;;;;;;19.38;9.10;;;;;;;5.57;80.64;98254.94;5004589;28;20018;-70
2022/12/12 04:47:54;;;;;;;19.98;10.57;;;;;;;4.95;81.39;98253.44;5013132;28;20404;-70
2022/12/12 04:50:26;;;;;;;31.95;15.52;;;;;;;5.04;82.75;98251.47;4998127;28;20130;-70
2022/12/12 04:52:54;;;;;;;58.03;18.65;;;;;;;5.21;81.62;98250.63;4993675;28;20061;-70
2022/12/12 04:55:30;;;;;;;31.73;15.65;;;;;;;5.37;81.54;98245.38;4995793;28;20105;-70
2022/12/12 04:57:56;;;;;;;27.45;14.63;;;;;;;5.50;80.75;98249.13;5001208;28;20074;-70
2022/12/12 05:00:24;;;;;;;26.05;15.45;;;;;;;5.56;79.80;98253.31;4992259;28;20033;-70
2022/12/12 05:03:16;;;;;;;22.10;13.20;;;;;;;5.18;79.38;98257.66;5006071;28;20442;-70
2022/12/12 05:06:06;;;;;;;51.03;29.08;;;;;;;4.61;82.36;98267.81;5005798;28;20068;-68
2022/12/12 05:08:36;;;;;;;42.22;24.52;;;;;;;4.61;83.11;98264.19;4993355;28;20026;-70
2022/12/12 05:11:05;;;;;;;41.40;22.75;;;;;;;4.97;83.28;98259.50;4995624;28;20034;-69
2022/12/12 05:13:33;;;;;;;48.35;28.65;;;;;;;4.92;81.49;98269.59;5012693;28;20084;-68
2022/12/12 05:16:00;;;;;;;42.47;23.05;;;;;;;4.91;81.36;98267.94;5011151;28;20033;-70
2022/12/12 05:18:26;;;;;;;32.15;19.10;;;;;;;5.02;81.34;98262.91;5008278;28;20025;-69
2022/12/12 05:20:51;;;;;;;36.85;17.50;;;;;;;4.92;80.46;98275.13;5012775;28;20408;-69
2022/12/12 05:23:17;;;;;;;37.45;21.75;;;;;;;4.25;82.72;98266.13;5012730;28;20332;-70
2022/12/12 05:25:43;;;;;;;29.58;16.88;;;;;;;3.98;85.27;98276.31;4998162;28;20022;-68
2022/12/12 05:28:08;;;;;;;32.97;15.40;;;;;;;4.12;84.63;98270.63;5011303;28;20045;-69
2022/12/12 05:30:34;;;;;;;23.05;13.80;;;;;;;4.28;84.73;98275.72;5012642;28;20034;-70
2022/12/12 05:32:59;;;;;;;19.10;13.07;;;;;;;4.56;84.61;98270.72;5001215;28;20038;-69
2022/12/12 05:35:26;;;;;;;22.75;13.98;;;;;;;4.31;83.99;98270.34;4993519;28;20041;-69
2022/12/12 05:37:51;;;;;;;19.00;11.68;;;;;;;3.96;85.17;98253.66;4991560;28;20061;-68
2022/12/12 05:40:17;;;;;;;24.77;13.77;;;;;;;3.99;84.96;98258.56;4998347;28;20057;-69
2022/12/12 05:42:44;;;;;;;20.83;14.38;;;;;;;3.78;86.77;98252.78;5009087;28;20033;-70
2022/12/12 05:45:10;;;;;;;27.75;12.48;;;;;;;3.67;88.00;98257.78;5000837;28;20033;-70
2022/12/12 05:47:36;;;;;;;14.93;10.73;;;;;;;4.15;87.03;98267.22;5000468;28;20029;-72
2022/12/12 05:50:02;;;;;;;46.25;21.73;;;;;;;3.97;85.36;98263.59;4998069;28;20120;-71
2022/12/12 05:52:27;;;;;;;40.20;20.08;;;;;;;4.05;86.07;98284.94;4990603;28;20066;-70
2022/12/12 05:54:53;;;;;;;29.75;17.23;;;;;;;4.07;85.61;98306.78;5001950;28;20628;-69
2022/12/12 05:57:18;;;;;;;74.22;34.72;;;;;;;4.11;86.10;98302.22;5007884;28;20033;-71
2022/12/12 05:59:45;;;;;;;74.90;32.72;;;;;;;4.21;85.59;98292.78;5008191;28;20029;-71
2022/12/12 06:02:10;;;;;;;26.88;14.57;;;;;;;4.13;86.16;98316.53;5000138;28;20062;-70
2022/12/12 06:04:36;;;;;;;32.70;16.88;;;;;;;3.95;86.30;98289.97;4995584;28;20474;-71
2022/12/12 06:07:05;;;;;;;39.08;20.98;;;;;;;3.84;87.12;98308.78;5008856;28;20042;-71
2022/12/12 06:09:30;;;;;;;39.13;22.00;;;;;;;3.68;88.78;98306.44;4999822;28;20485;-71
2022/12/12 06:11:56;;;;;;;44.00;23.05;;;;;;;3.69;89.33;98313.59;4989399;28;20041;-71
2022/12/12 06:14:21;;;;;;;30.30;16.65;;;;;;;3.56;88.90;98325.56;4989864;28;20150;-70
2022/12/12 06:16:47;;;;;;;38.75;25.73;;;;;;;3.40;89.77;98322.38;4998566;28;20049;-71
2022/12/12 06:19:12;;;;;;;55.83;20.33;;;;;;;3.42;90.64;98325.63;5006555;28;20087;-69
2022/12/12 06:21:38;;;;;;;23.45;15.55;;;;;;;3.34;90.54;98324.44;4988030;28;20045;-68
2022/12/12 06:24:07;;;;;;;21.80;13.55;;;;;;;3.69;90.68;98323.84;4989382;28;20030;-69
2022/12/12 06:26:32;;;;;;;27.60;16.08;;;;;;;3.92;89.98;98330.97;4990097;28;20598;-69
2022/12/12 06:28:58;;;;;;;43.85;27.90;;;;;;;4.19;88.98;98339.34;4993313;28;20029;-70
2022/12/12 06:31:23;;;;;;;51.03;31.83;;;;;;;4.33;86.88;98345.59;4998031;28;20404;-71
2022/12/12 06:33:49;;;;;;;52.90;30.15;;;;;;;4.02;87.00;98349.25;4996296;28;20100;-69
2022/12/12 06:36:22;;;;;;;47.35;27.77;;;;;;;4.11;86.75;98349.25;5008917;28;20033;-69
2022/12/12 06:38:55;;;;;;;46.15;24.08;;;;;;;4.08;87.37;98347.94;5008686;28;20033;-69
2022/12/12 06:41:23;;;;;;;30.77;17.65;;;;;;;4.25;86.18;98353.88;5008819;28;20314;-69
2022/12/12 06:43:49;;;;;;;66.57;29.38;;;;;;;4.31;86.35;98350.63;5004423;28;20484;-68
2022/12/12 06:46:18;;;;;;;93.00;43.63;;;;;;;4.41;86.91;98354.25;5003380;28;20068;-70
2022/12/12 06:48:44;;;;;;;77.32;34.85;;;;;;;4.37;86.13;98354.06;5006031;28;20042;-69
2022/12/12 06:51:13;;;;;;;76.05;32.13;;;;;;;4.35;85.56;98356.34;5007556;28;20057;-69
2022/12/12 06:53:39;;;;;;;63.45;34.03;;;;;;;4.43;85.20;98363.88;5008786;28;20504;-69
2022/12/12 06:56:11;;;;;;;47.85;25.85;;;;;;;4.46;85.56;98365.16;5007299;28;20022;-70
2022/12/12 06:58:36;;;;;;;42.53;23.88;;;;;;;4.40;85.83;98364.50;5008341;28;20164;-68
2022/12/12 07:01:03;;;;;;;41.85;20.50;;;;;;;4.32;86.19;98382.72;5008677;28;20108;-67
2022/12/12 07:03:28;;;;;;;42.67;23.63;;;;;;;4.46;86.53;98387.31;4996527;28;20045;-66
2022/12/12 07:05:53;;;;;;;41.92;22.35;;;;;;;4.57;86.58;98374.81;5003759;28;20030;-69
2022/12/12 07:08:19;;;;;;;37.90;21.42;;;;;;;4.91;86.46;98387.09;4992815;28;20030;-70
2022/12/12 07:10:44;;;;;;;40.95;21.48;;;;;;;5.08;84.95;98382.75;4994121;28;20069;-69
2022/12/12 07:13:10;;;;;;;36.90;20.58;;;;;;;5.14;83.17;98398.06;4994221;28;20073;-69
2022/12/12 07:15:47;;;;;;;39.30;22.05;;;;;;;5.31;83.13;98396.47;4999520;28;20113;-68
2022/12/12 07:18:14;;;;;;;38.00;22.70;;;;;;;5.42;83.10;98397.72;4995934;28;20042;-68
2022/12/12 07:20:41;;;;;;;44.00;22.77;;;;;;;5.32;82.61;98403.63;5009054;28;20470;-69
2022/12/12 07:23:07;;;;;;;38.40;21.75;;;;;;;5.22;83.73;98398.41;5006272;28;20109;-70
2022/12/12 07:25:32;;;;;;;41.90;21.20;;;;;;;4.95;84.61;98401.16;5009072;28;20037;-69
2022/12/12 07:27:58;;;;;;;43.45;23.27;;;;;;;4.64;86.59;98413.13;4999217;28;20156;-70
2022/12/12 07:30:23;;;;;;;67.15;28.52;;;;;;;4.58;87.75;98401.38;5012482;28;20030;-69
2022/12/12 07:32:50;;;;;;;53.10;27.42;;;;;;;4.96;87.66;98413.06;5010032;28;20042;-68
2022/12/12 07:35:16;;;;;;;70.63;34.50;;;;;;;5.20;87.18;98424.50;5012652;28;20473;-69
2022/12/12 07:37:41;;;;;;;35.90;22.23;;;;;;;5.25;85.47;98431.03;5010037;28;20025;-67
2022/12/12 07:40:07;;;;;;;32.30;18.67;;;;;;;5.32;85.29;98445.22;5008554;28;20034;-69
2022/12/12 07:42:33;;;;;;;24.25;15.45;;;;;;;5.46;86.15;98454.19;5010380;28;20041;-69
2022/12/12 07:44:58;;;;;;;42.22;19.52;;;;;;;5.56;86.00;98457.81;5010651;28;20044;-69
2022/12/12 07:47:24;;;;;;;26.38;14.43;;;;;;;5.51;86.67;98455.16;5001625;28;20579;-71
2022/12/12 07:49:49;;;;;;;30.90;14.02;;;;;;;5.63;87.00;98455.34;5008756;28;20053;-71
2022/12/12 07:52:15;;;;;;;31.88;16.08;;;;;;;5.65;87.44;98466.91;5012005;28;20041;-72
2022/12/12 07:54:40;;;;;;;49.88;23.60;;;;;;;5.84;87.25;98477.69;5001563;28;20541;-74
2022/12/12 07:57:05;;;;;;;31.08;19.23;;;;;;;5.94;86.05;98467.38;4998014;28;20026;-74
2022/12/12 07:59:31;;;;;;;22.05;13.30;;;;;;;5.96;84.31;98468.69;4996672;28;20038;-73
2022/12/12 08:01:56;;;;;;;32.25;17.55;;;;;;;6.10;83.74;98468.56;4995827;28;20030;-72
2022/12/12 08:04:22;;;;;;;29.08;15.27;;;;;;;6.17;82.39;98476.38;4992915;28;20436;-71
2022/12/12 08:06:47;;;;;;;43.88;23.17;;;;;;;6.13;81.70;98470.66;5011361;28;20514;-72
2022/12/12 08:09:13;;;;;;;28.90;16.48;;;;;;;6.33;81.18;98479.41;5004903;28;20096;-74
2022/12/12 08:11:39;;;;;;;26.50;15.32;;;;;;;6.33;80.13;98473.88;5006804;28;20092;-74
2022/12/12 08:14:07;;;;;;;22.92;14.02;;;;;;;6.40;80.26;98485.28;4994477;28;20084;-72
2022/12/12 08:16:33;;;;;;;20.65;12.23;;;;;;;6.50;80.42;98489.66;5012087;28;20056;-72
2022/12/12 08:18:58;;;;;;;14.70;10.93;;;;;;;6.47;80.23;98495.91;4996949;28;20026;-71
2022/12/12 08:21:26;;;;;;;39.33;16.30;;;;;;;6.59;79.90;98487.69;5003623;28;20089;-73
2022/12/12 08:23:55;;;;;;;38.45;18.20;;;;;;;6.42;78.65;98499.66;5001440;28;20421;-71
2022/12/12 08:26:21;;;;;;;54.40;27.40;;;;;;;6.00;80.04;98499.41;4994357;28;20041;-71
2022/12/12 08:28:48;;;;;;;59.08;28.42;;;;;;;5.58;81.53;98486.81;5025785;28;20026;-70
2022/12/12 08:31:15;;;;;;;56.50;28.85;;;;;;;5.72;81.86;98491.41;4991380;28;20108;-71
2022/12/12 08:33:41;;;;;;;1160.03;647.30;;;;;;;5.94;81.80;98500.69;5000651;28;20534;-70
2022/12/12 08:36:15;;;;;;;906.20;487.17;;;;;;;6.19;80.57;98501.84;5005378;28;20117;-71
2022/12/12 08:38:41;;;;;;;340.38;163.65;;;;;;;6.28;80.44;98504.59;4998864;28;20531;-72
2022/12/12 08:41:08;;;;;;;114.30;59.00;;;;;;;6.26;80.10;98501.34;4990740;28;20077;-70
2022/12/12 08:43:34;;;;;;;610.53;334.27;;;;;;;6.41;80.02;98502.78;4996351;28;20144;-70
2022/12/12 08:46:01;;;;;;;934.55;516.03;;;;;;;6.34;80.77;98496.91;5005323;28;20028;-71
2022/12/12 08:48:27;;;;;;;170.05;82.15;;;;;;;6.21;81.90;98496.78;5003929;28;20029;-70
2022/12/12 08:50:53;;;;;;;287.60;126.13;;;;;;;6.28;81.43;98499.06;4990455;28;20054;-69
2022/12/12 08:53:19;;;;;;;91.63;43.83;;;;;;;6.51;80.80;98509.94;4990618;28;20042;-70
2022/12/12 08:55:44;;;;;;;76.68;36.03;;;;;;;6.48;80.55;98511.41;4996095;28;20433;-71
2022/12/12 08:58:10;;;;;;;92.03;63.72;;;;;;;6.68;80.38;98507.09;5003344;28;20046;-71
2022/12/12 09:00:35;;;;;;;54.08;29.67;;;;;;;6.88;79.76;98499.19;5003363;28;20424;-70
2022/12/12 09:03:01;;;;;;;60.72;33.00;;;;;;;6.96;78.60;98497.50;4997532;28;20422;-71
2022/12/12 09:05:26;;;;;;;53.60;25.92;;;;;;;7.18;78.55;98501.16;5038963;28;20060;-71
2022/12/12 09:07:52;;;;;;;185.48;113.88;;;;;;;7.19;78.91;98491.66;4998501;28;20030;-71
2022/12/12 09:10:17;;;;;;;51.10;26.05;;;;;;;7.12;78.28;98481.06;4990546;28;20038;-71
2022/12/12 09:12:43;;;;;;;47.92;24.70;;;;;;;6.91;78.49;98454.03;5033585;28;20037;-72
2022/12/12 09:15:09;;;;;;;52.70;30.58;;;;;;;7.29;77.93;98492.06;5007271;28;20038;-70
2022/12/12 09:17:34;;;;;;;56.75;32.13;;;;;;;7.53;77.48;98484.25;5006702;28;20030;-73
2022/12/12 09:20:00;;;;;;;48.85;29.70;;;;;;;7.77;75.92;98482.75;4992020;28;20041;-73
2022/12/12 09:22:26;;;;;;;58.80;30.45;;;;;;;7.77;75.66;98486.31;5001002;28;20030;-71
2022/12/12 09:24:51;;;;;;;47.05;27.40;;;;;;;7.97;75.14;98486.66;4995060;28;20034;-70
2022/12/12 09:27:17;;;;;;;51.15;28.02;;;;;;;8.18;75.16;98486.63;4997714;28;20612;-69
2022/12/12 09:29:42;;;;;;;44.97;23.60;;;;;;;8.18;74.62;98494.97;5009825;28;20040;-71
2022/12/12 09:32:08;;;;;;;61.85;29.25;;;;;;;8.11;74.11;98484.38;5013982;28;20136;-71
2022/12/12 09:34:35;;;;;;;53.25;26.85;;;;;;;8.03;74.60;98473.34;4991253;28;20121;-71
2022/12/12 09:37:01;;;;;;;45.20;24.20;;;;;;;8.05;74.85;98480.19;4990254;28;20603;-69
2022/12/12 09:39:26;;;;;;;37.38;19.52;;;;;;;8.26;74.41;98469.00;4988848;28;20132;-71
2022/12/12 09:41:52;;;;;;;44.55;24.60;;;;;;;8.41;74.69;98455.56;4993100;28;20038;-71
2022/12/12 09:44:21;;;;;;;41.58;23.13;;;;;;;8.55;74.02;98467.22;4988682;28;20030;-75
2022/12/12 09:46:59;;;;;;;31.65;18.95;;;;;;;8.64;72.73;98457.94;5004196;28;20038;-75
2022/12/12 09:49:44;;;;;;;34.75;19.13;;;;;;;9.02;71.52;98462.38;4996708;28;20108;-75
2022/12/12 09:52:23;;;;;;;30.85;18.35;;;;;;;9.26;71.16;98458.78;4998811;28;20116;-72
2022/12/12 09:54:49;;;;;;;37.83;21.10;;;;;;;9.28;70.38;98461.19;5006371;28;20044;-75
2022/12/12 09:57:35;;;;;;;47.75;24.13;;;;;;;9.45;71.01;98460.09;4992047;28;20568;-75
2022/12/12 10:00:09;;;;;;;39.95;24.20;;;;;;;9.07;72.68;98467.75;5003579;28;20033;-74
2022/12/12 10:02:52;;;;;;;45.50;25.05;;;;;;;9.01;71.51;98451.59;5008687;28;20121;-70
2022/12/12 10:05:56;;;;;;;44.10;24.40;;;;;;;9.46;71.21;98466.53;5006440;28;20088;-72
2022/12/12 10:09:18;;;;;;;33.72;19.65;;;;;;;8.71;73.03;98461.78;4990122;28;20050;-72
2022/12/12 10:11:50;;;;;;;29.92;16.38;;;;;;;8.41;73.91;98433.28;4961010;28;20425;-72
2022/12/12 10:14:37;;;;;;;43.65;18.42;;;;;;;8.49;75.58;98446.28;4992189;28;20413;-73
2022/12/12 10:17:09;;;;;;;31.88;14.23;;;;;;;8.68;75.26;98442.16;4991456;28;20041;-73
2022/12/12 10:19:45;;;;;;;24.48;14.05;;;;;;;8.59;74.01;98447.03;4990392;28;20413;-73
2022/12/12 10:22:19;;;;;;;24.05;9.38;;;;;;;8.45;73.48;98427.81;4990708;28;20030;-73
2022/12/12 10:24:50;;;;;;;19.95;10.30;;;;;;;8.68;73.61;98426.25;4991678;28;20034;-74
2022/12/12 10:27:16;;;;;;;19.70;9.52;;;;;;;8.65;72.58;98404.66;4992091;28;20057;-72
2022/12/12 10:29:48;;;;;;;23.75;10.18;;;;;;;8.95;72.78;98428.69;4997448;28;20072;-74
2022/12/12 10:32:40;;;;;;;16.45;8.90;;;;;;;9.40;70.73;98427.66;5004341;28;20078;-73
2022/12/12 10:35:12;;;;;;;17.30;8.50;;;;;;;9.57;69.83;98425.78;5008477;28;20030;-74
2022/12/12 10:38:10;;;;;;;19.63;9.77;;;;;;;9.92;69.02;98425.19;4996823;28;20026;-74
2022/12/12 10:40:59;;;;;;;15.60;9.77;;;;;;;10.01;69.27;98424.19;4990416;28;20034;-75
2022/12/12 10:43:44;;;;;;;12.10;9.48;;;;;;;10.05;68.26;98422.34;4991342;28;20073;-73
2022/12/12 10:46:29;;;;;;;17.30;9.85;;;;;;;9.82;66.23;98412.53;4999270;28;20060;-74
2022/12/12 10:48:56;;;;;;;15.85;7.82;;;;;;;9.75;66.37;98417.09;4994021;28;20124;-73
2022/12/12 10:51:26;;;;;;;19.00;10.27;;;;;;;9.78;66.78;98416.41;4999781;28;20062;-74
2022/12/12 10:53:52;;;;;;;41.40;14.20;;;;;;;9.97;67.09;98408.16;4993975;28;20025;-72
2022/12/12 10:56:23;;;;;;;24.40;13.73;;;;;;;10.03;65.87;98405.13;5000957;28;20045;-74
2022/12/12 10:59:19;;;;;;;25.73;16.75;;;;;;;10.24;65.11;98419.63;5002956;28;20423;-75
2022/12/12 11:01:57;;;;;;;29.63;19.50;;;;;;;9.96;65.93;98412.13;5008267;28;20479;-72
2022/12/12 11:04:24;;;;;;;37.65;20.00;;;;;;;10.38;65.01;98398.84;4997344;28;20088;-71
2022/12/12 11:06:51;;;;;;;48.40;18.77;;;;;;;10.59;63.66;98392.19;4990025;28;20073;-71
2022/12/12 11:09:26;;;;;;;25.23;16.52;;;;;;;10.82;63.08;98395.16;4998242;28;20038;-71
2022/12/12 11:12:09;;;;;;;30.50;16.30;;;;;;;10.65;63.56;98387.97;4992733;28;20045;-71
2022/12/12 11:14:37;;;;;;;25.77;15.25;;;;;;;10.44;63.30;98377.03;4991164;28;20038;-71
2022/12/12 11:17:29;;;;;;;26.63;14.98;;;;;;;10.96;62.72;98377.88;4997119;28;20034;-70
2022/12/12 11:19:57;;;;;;;24.67;14.15;;;;;;;11.13;61.54;98376.66;4989801;28;20548;-70
2022/12/12 11:22:23;;;;;;;22.52;12.77;;;;;;;11.09;60.39;98371.00;4989154;28;20054;-71
2022/12/12 11:24:49;;;;;;;22.27;13.00;;;;;;;11.29;61.20;98359.81;4989753;28;20124;-73
2022/12/12 11:27:38;;;;;;;22.23;14.23;;;;;;;11.03;61.69;98361.28;4990028;28;20030;-74
2022/12/12 11:30:07;;;;;;;21.67;14.43;;;;;;;11.18;62.84;98364.38;5002415;28;20034;-74
2022/12/12 11:32:47;;;;;;;26.90;15.52;;;;;;;10.77;63.26;98357.09;5008385;28;20412;-71
2022/12/12 11:35:35;;;;;;;24.17;14.80;;;;;;;10.70;63.14;98368.09;4995945;28;20513;-69
2022/12/12 11:38:19;;;;;;;21.58;14.32;;;;;;;10.81;63.25;98362.78;4987887;28;20078;-72
2022/12/12 11:40:54;;;;;;;26.80;13.82;;;;;;;10.96;62.88;98358.31;5000838;28;20117;-73
2022/12/12 11:43:58;;;;;;;33.15;21.58;;;;;;;11.06;62.11;98363.34;5003346;28;20040;-72
2022/12/12 11:46:27;;;;;;;23.15;14.35;;;;;;;10.80;62.09;98361.94;4998669;28;20461;-72
2022/12/12 11:48:52;;;;;;;273.90;100.95;;;;;;;10.82;62.18;98370.00;4994270;28;20027;-73
2022/12/12 11:51:37;;;;;;;315.00;135.23;;;;;;;10.85;61.35;98380.44;4996936;28;20029;-73
2022/12/12 11:54:14;;;;;;;1999.90;786.40;;;;;;;10.89;61.56;98380.53;5010418;28;20030;-74
2022/12/12 11:57:00;;;;;;;399.25;157.02;;;;;;;10.98;62.05;98380.31;4998701;28;20412;-73
2022/12/12 11:59:46;;;;;;;52.45;23.13;;;;;;;10.98;61.15;98381.16;4998991;28;20030;-72